Time;durP1;ratioP1;P1;durP2;ratioP2;P2;SDS_P1;SDS_P2;PMS_P1;PMS_P2;Temp;Humidity;BMP_temperature;BMP_pressure;BME280_temperature;BME280_humidity;BME280_pressure;Samples;Min_cycle;Max_cycle;Signal;HPM_P1;HPM_P2
2023/09/21 00:01:41;;;;;;;4.95;2.88;;;17.10;78.70;;;16.27;100.00;95207.44;6070555;23;20360;-72
2023/09/21 00:04:07;;;;;;;4.95;3.17;;;17.10;78.70;;;16.23;100.00;95209.00;6119637;23;20013;-72
2023/09/21 00:06:33;;;;;;;3.38;2.72;;;17.10;78.40;;;16.21;100.00;95208.44;6117290;23;20553;-72
2023/09/21 00:08:59;;;;;;;3.67;2.72;;;17.10;78.20;;;16.15;100.00;95198.81;6118111;23;20098;-74
2023/09/21 00:11:25;;;;;;;4.53;3.25;;;17.10;78.20;;;16.16;100.00;95203.06;6092734;23;20038;-72
2023/09/21 00:13:50;;;;;;;6.43;3.08;;;17.10;78.40;;;16.18;100.00;95199.13;6093465;23;20153;-72
2023/09/21 00:16:18;;;;;;;4.13;3.15;;;17.00;78.60;;;16.16;100.00;95187.16;6118452;23;20014;-71
2023/09/21 00:18:44;;;;;;;4.75;3.30;;;17.00;78.70;;;16.15;100.00;95182.91;6094306;23;20085;-72
2023/09/21 00:21:12;;;;;;;6.85;2.83;;;17.00;79.00;;;16.14;100.00;95194.56;6069176;23;20014;-73
2023/09/21 00:23:38;;;;;;;4.22;2.83;;;17.10;77.90;;;16.09;100.00;95189.19;6068079;23;20041;-73
2023/09/21 00:26:04;;;;;;;3.95;3.05;;;17.10;77.40;;;16.12;100.00;95191.34;6069849;23;20021;-72
2023/09/21 00:28:30;;;;;;;3.85;3.13;;;17.00;77.90;;;16.13;100.00;95190.31;6093298;23;20772;-74
2023/09/21 00:30:59;;;;;;;5.93;3.25;;;17.10;78.30;;;16.13;100.00;95190.31;6119080;23;20428;-72
2023/09/21 00:33:26;;;;;;;5.57;3.83;;;17.10;78.80;;;16.13;100.00;95175.19;6095299;23;20020;-72
2023/09/21 00:35:58;;;;;;;4.90;3.47;;;17.10;79.30;;;16.14;100.00;95176.78;6119486;23;20009;-73
2023/09/21 00:38:24;;;;;;;6.78;4.30;;;17.10;79.50;;;16.11;100.00;95160.56;6118853;23;20014;-74
2023/09/21 00:40:50;;;;;;;4.78;3.50;;;17.10;79.50;;;16.11;100.00;95165.88;6071255;23;20010;-73
2023/09/21 00:43:27;;;;;;;6.07;3.92;;;17.10;79.70;;;16.12;100.00;95156.88;6070557;23;20014;-72
2023/09/21 00:45:54;;;;;;;8.55;3.88;;;17.10;79.80;;;16.13;100.00;95164.56;6120090;23;20009;-72
2023/09/21 00:48:25;;;;;;;9.65;4.10;;;17.10;79.70;;;16.15;100.00;95164.31;6120650;23;20486;-73
2023/09/21 00:50:53;;;;;;;7.57;4.07;;;17.10;79.70;;;16.11;100.00;95155.25;6073110;23;20018;-73
2023/09/21 00:53:19;;;;;;;6.95;3.95;;;17.20;79.80;;;16.14;100.00;95163.53;6094747;23;20014;-72
2023/09/21 00:55:48;;;;;;;11.18;4.10;;;17.10;79.70;;;16.13;100.00;95158.47;6095444;23;20046;-72
2023/09/21 00:58:16;;;;;;;4.97;4.03;;;17.10;79.60;;;16.14;100.00;95160.06;6096077;23;20500;-71
2023/09/21 01:00:41;;;;;;;6.70;3.70;;;17.10;79.50;;;16.14;100.00;95149.47;6121309;23;20018;-73
2023/09/21 01:03:11;;;;;;;8.45;4.10;;;17.10;79.60;;;16.14;100.00;95149.47;6119588;23;20014;-72
2023/09/21 01:05:39;;;;;;;6.07;4.30;;;17.10;79.40;;;16.08;100.00;95139.84;6072955;23;20025;-72
2023/09/21 01:08:13;;;;;;;6.15;4.57;;;17.10;79.50;;;16.05;100.00;95142.97;6095627;23;20478;-73
2023/09/21 01:10:44;;;;;;;5.25;4.40;;;17.00;79.90;;;16.03;100.00;95145.06;6096331;23;20044;-71
2023/09/21 01:13:11;;;;;;;;;;;17.00;79.90;;;16.01;100.00;95145.31;6072863;23;20347;-72
2023/09/21 01:15:37;;;;;;;5.97;4.57;;;17.00;79.70;;;15.98;100.00;95150.31;6118915;23;20339;-71
2023/09/21 01:18:07;;;;;;;5.05;4.00;;;16.90;79.40;;;15.98;100.00;95145.00;6119366;23;20025;-72
2023/09/21 01:20:33;;;;;;;5.43;4.35;;;16.90;79.40;;;15.95;100.00;95138.34;6119149;23;20492;-72
2023/09/21 01:23:22;;;;;;;6.22;4.32;;;17.00;79.40;;;15.92;100.00;95136.19;6095000;23;20038;-72
2023/09/21 01:25:49;;;;;;;7.82;4.22;;;16.90;79.50;;;15.86;100.00;95132.66;6098101;23;20536;-73
2023/09/21 01:28:22;;;;;;;7.60;4.80;;;16.80;79.70;;;15.84;100.00;95133.94;6071642;23;20006;-70
2023/09/21 01:30:49;;;;;;;6.55;4.45;;;16.80;79.60;;;15.81;100.00;95129.94;6121778;23;20013;-71
2023/09/21 01:33:15;;;;;;;6.32;4.68;;;16.80;79.40;;;15.79;100.00;95134.66;6094667;23;20022;-72
2023/09/21 01:35:47;;;;;;;10.57;4.63;;;16.70;79.10;;;15.76;100.00;95140.47;6071629;23;20075;-72
2023/09/21 01:38:13;;;;;;;6.95;4.25;;;16.70;79.20;;;15.70;100.00;95133.50;6118778;23;20037;-72
2023/09/21 01:40:40;;;;;;;8.80;5.28;;;16.60;79.30;;;15.69;100.00;95131.91;6119356;23;20018;-72
2023/09/21 01:43:15;;;;;;;7.15;4.70;;;16.60;79.10;;;15.65;100.00;95130.78;6071983;23;20025;-72
2023/09/21 01:45:42;;;;;;;6.40;4.80;;;16.60;79.20;;;15.61;100.00;95125.16;6097501;23;20468;-72
2023/09/21 01:48:10;;;;;;;4.88;4.20;;;16.60;79.10;;;15.55;100.00;95115.50;6120922;23;20018;-72
2023/09/21 01:50:43;;;;;;;7.10;4.43;;;16.50;79.10;;;15.52;100.00;95112.53;6072799;23;20018;-72
2023/09/21 01:53:10;;;;;;;6.22;4.55;;;16.50;79.00;;;15.49;100.00;95110.38;6119938;23;20073;-73
2023/09/21 01:55:39;;;;;;;6.30;4.13;;;16.50;79.00;;;15.47;100.00;95115.13;6094871;23;20460;-72
2023/09/21 01:58:05;;;;;;;6.43;3.50;;;16.50;79.20;;;15.42;100.00;95112.41;6093682;23;20625;-73
2023/09/21 02:00:35;;;;;;;6.90;4.10;;;16.40;79.40;;;15.40;100.00;95106.53;6120266;23;20033;-73
2023/09/21 02:03:06;;;;;;;6.85;3.95;;;16.40;79.60;;;15.38;100.00;95098.81;6120740;23;20022;-72
2023/09/21 02:05:32;;;;;;;4.90;3.55;;;16.40;79.70;;;15.39;100.00;95100.44;6121376;23;20064;-73
2023/09/21 02:07:58;;;;;;;4.65;4.20;;;16.40;79.80;;;15.38;100.00;95103.31;6121759;23;20356;-73
2023/09/21 02:10:24;;;;;;;5.65;4.32;;;16.40;80.00;;;15.34;100.00;95092.41;6094323;23;20006;-72
2023/09/21 02:12:55;;;;;;;7.30;4.72;;;16.40;80.00;;;15.32;100.00;95084.69;6067488;23;20024;-74
2023/09/21 02:15:21;;;;;;;5.50;4.45;;;16.40;80.20;;;15.30;100.00;95086.78;6091497;23;20014;-73
2023/09/21 02:17:46;;;;;;;5.95;4.75;;;16.30;80.30;;;15.27;100.00;95081.16;6111609;23;20042;-73
2023/09/21 02:20:16;;;;;;;4.90;4.10;;;16.30;80.30;;;15.25;100.00;95089.38;6121075;23;20416;-73
2023/09/21 02:22:46;;;;;;;5.13;4.47;;;16.20;80.30;;;15.24;100.00;95087.75;6123000;23;20022;-73
2023/09/21 02:25:12;;;;;;;5.80;4.93;;;16.30;80.20;;;15.22;100.00;95084.56;6074146;23;20486;-73
2023/09/21 02:27:41;;;;;;;6.70;4.85;;;16.30;80.30;;;15.23;100.00;95080.84;6075809;23;20025;-72
2023/09/21 02:30:16;;;;;;;5.70;5.05;;;16.30;80.30;;;15.24;100.00;95085.13;6124644;23;20068;-72
2023/09/21 02:32:49;;;;;;;5.75;4.60;;;16.30;80.30;;;15.23;100.00;95072.91;6098074;23;20010;-72
2023/09/21 02:35:16;;;;;;;5.70;4.88;;;16.20;80.30;;;15.19;100.00;95077.09;6095660;23;20033;-72
2023/09/21 02:37:46;;;;;;;5.82;5.05;;;16.20;80.10;;;15.17;100.00;95070.44;6118944;23;20026;-73
2023/09/21 02:40:17;;;;;;;6.18;5.50;;;16.20;80.20;;;15.17;100.00;95067.78;6047223;23;20024;-74
2023/09/21 02:42:44;;;;;;;7.30;5.90;;;16.20;80.20;;;15.15;100.00;95060.06;6094146;23;20024;-73
2023/09/21 02:45:13;;;;;;;7.15;5.50;;;16.20;80.30;;;15.14;100.00;95060.31;6094106;23;20029;-72
2023/09/21 02:47:42;;;;;;;7.10;5.57;;;16.20;80.20;;;15.12;100.00;95055.25;6069779;23;20018;-72
2023/09/21 02:50:14;;;;;;;6.50;5.28;;;16.20;80.30;;;15.09;100.00;95063.69;6117846;23;20022;-71
2023/09/21 02:53:06;;;;;;;5.82;5.22;;;16.10;80.20;;;15.06;100.00;95058.06;6094527;23;20413;-72
2023/09/21 02:55:33;;;;;;;6.22;5.65;;;16.10;80.30;;;15.01;100.00;95066.75;6093947;23;20013;-72
2023/09/21 02:58:10;;;;;;;7.28;5.30;;;16.10;80.50;;;14.99;100.00;95058.25;6118212;23;20088;-72
2023/09/21 03:00:39;;;;;;;11.30;5.82;;;16.00;80.70;;;14.94;100.00;95055.53;6117783;23;20018;-74
2023/09/21 03:03:07;;;;;;;6.20;5.60;;;16.00;80.70;;;14.96;100.00;95056.09;6070974;23;20021;-73
2023/09/21 03:05:33;;;;;;;6.10;5.53;;;16.10;80.70;;;14.94;100.00;95055.53;6069576;23;20014;-73
2023/09/21 03:08:13;;;;;;;6.32;5.70;;;16.00;80.70;;;14.91;100.00;95050.69;6117915;23;20037;-73
2023/09/21 03:10:48;;;;;;;7.75;5.82;;;16.00;80.70;;;14.90;100.00;95054.38;6074929;23;20475;-72
2023/09/21 03:13:18;;;;;;;8.30;5.93;;;15.90;80.50;;;14.82;100.00;95036.25;6118077;23;20053;-72
2023/09/21 03:15:45;;;;;;;8.07;5.70;;;15.80;79.90;;;14.78;100.00;95040.44;6071003;23;20056;-72
2023/09/21 03:18:10;;;;;;;6.88;5.20;;;15.80;80.10;;;14.73;100.00;95033.22;6093572;23;20494;-72
2023/09/21 03:20:37;;;;;;;33.63;22.90;;;15.80;80.20;;;14.74;100.00;95040.13;6069424;23;20018;-73
2023/09/21 03:23:09;;;;;;;26.35;23.00;;;15.80;80.30;;;14.75;100.00;95035.63;6117827;23;20028;-72
2023/09/21 03:25:45;;;;;;;40.63;32.10;;;15.80;80.50;;;14.76;100.00;95021.34;6091422;23;20022;-72
2023/09/21 03:28:13;;;;;;;14.25;12.68;;;15.80;80.80;;;14.73;100.00;95027.94;6093931;23;20013;-72
2023/09/21 03:30:43;;;;;;;14.45;12.63;;;15.80;80.50;;;14.73;100.00;95022.63;6100438;23;20073;-73
2023/09/21 03:33:09;;;;;;;9.85;7.80;;;15.80;80.40;;;14.72;100.00;95021.03;6109656;23;20097;-74
2023/09/21 03:35:37;;;;;;;7.30;6.60;;;15.80;80.10;;;14.72;100.00;95022.88;6128059;23;20010;-73
2023/09/21 03:38:06;;;;;;;8.20;6.60;;;15.80;80.00;;;14.67;100.00;95013.78;6112630;23;20021;-73
2023/09/21 03:40:33;;;;;;;7.95;6.60;;;15.70;80.10;;;14.65;100.00;95010.59;6098339;23;20711;-73
2023/09/21 03:42:59;;;;;;;7.43;6.05;;;15.70;80.10;;;14.68;100.00;95012.75;6116628;23;20002;-72
2023/09/21 03:45:25;;;;;;;8.20;6.95;;;15.70;80.30;;;14.63;100.00;95015.31;6117384;23;20717;-69
2023/09/21 03:47:54;;;;;;;8.25;6.47;;;15.60;79.80;;;14.60;100.00;95010.50;6118613;23;20096;-69
2023/09/21 03:50:24;;;;;;;8.90;6.30;;;15.60;79.80;;;14.58;100.00;95014.44;6047112;23;20021;-70
2023/09/21 03:52:50;;;;;;;84.15;70.28;;;15.60;80.10;;;14.57;100.00;95016.28;6118594;23;20040;-70
2023/09/21 03:55:16;;;;;;;37.30;32.47;;;15.60;80.40;;;14.55;100.00;95015.72;6119779;23;20009;-69
2023/09/21 03:57:46;;;;;;;35.92;25.65;;;15.60;80.50;;;14.52;100.00;95018.06;6121039;23;20013;-70
2023/09/21 04:00:59;;;;;;;23.13;16.38;;;15.60;80.70;;;14.52;100.00;95010.91;6121509;23;20025;-70
2023/09/21 04:03:06;;;;;;;21.67;17.58;;;15.60;80.60;;;14.50;100.00;95001.63;6102160;23;20018;-71
2023/09/21 04:05:35;;;;;;;54.63;46.30;;;15.60;80.60;;;14.48;100.00;95004.47;6110072;23;20018;-71
2023/09/21 04:08:02;;;;;;;18.35;14.75;;;15.60;80.50;;;14.46;100.00;95001.28;6088826;23;20124;-70
2023/09/21 04:10:28;;;;;;;10.95;7.68;;;15.60;80.70;;;14.42;100.00;94989.53;6090820;23;20010;-70
2023/09/21 04:12:56;;;;;;;8.02;6.30;;;15.50;81.10;;;14.42;100.00;94997.47;6124009;23;20459;-71
2023/09/21 04:15:24;;;;;;;10.18;7.63;;;15.60;81.40;;;14.40;100.00;94986.34;6120993;23;20018;-70
2023/09/21 04:17:51;;;;;;;10.38;6.93;;;15.60;82.10;;;14.42;100.00;94989.53;6071982;23;20104;-70
2023/09/21 04:20:18;;;;;;;15.70;13.77;;;15.60;82.00;;;14.43;100.00;94980.59;6097093;23;20026;-69
2023/09/21 04:22:45;;;;;;;16.02;10.65;;;15.60;82.00;;;14.45;100.00;94986.44;6072807;23;20020;-70
2023/09/21 04:25:14;;;;;;;11.50;9.38;;;15.60;81.80;;;14.44;100.00;94987.47;6096153;23;20068;-70
2023/09/21 04:27:44;;;;;;;9.20;7.75;;;15.60;81.80;;;14.45;100.00;94991.72;6072133;23;20014;-70
2023/09/21 04:30:14;;;;;;;8.68;7.03;;;15.60;81.50;;;14.43;100.00;94980.59;6123016;23;20097;-70
2023/09/21 04:32:46;;;;;;;10.32;7.90;;;15.50;81.20;;;14.40;100.00;94987.13;6096708;23;20025;-69
2023/09/21 04:35:18;;;;;;;10.13;6.90;;;15.50;81.30;;;14.39;100.00;94974.94;6120746;23;20639;-68
2023/09/21 04:37:47;;;;;;;11.10;7.63;;;15.50;81.30;;;14.35;100.00;94973.84;6097239;23;20633;-69
2023/09/21 04:40:13;;;;;;;10.18;7.85;;;15.40;81.30;;;14.28;100.00;94973.19;6121214;23;20014;-68
2023/09/21 04:42:40;;;;;;;9.70;7.43;;;15.40;81.50;;;14.23;100.00;94978.38;6122151;23;20022;-69
2023/09/21 04:45:09;;;;;;;8.48;7.30;;;15.40;81.80;;;14.19;100.00;94969.31;6119742;23;20057;-67
2023/09/21 04:47:36;;;;;;;7.65;6.40;;;15.30;81.90;;;14.20;100.00;94970.13;6096231;23;20018;-70
2023/09/21 04:50:02;;;;;;;8.50;6.40;;;15.30;82.20;;;14.20;100.00;94968.28;6121922;23;20083;-69
2023/09/21 04:52:36;;;;;;;9.63;7.10;;;15.30;82.20;;;14.17;100.00;94975.91;6118699;23;20436;-69
2023/09/21 04:55:08;;;;;;;7.70;6.63;;;15.30;82.20;;;14.19;100.00;94971.16;6096813;23;20071;-67
2023/09/21 04:57:34;;;;;;;10.73;7.50;;;15.30;82.20;;;14.19;100.00;94973.81;6121358;23;20014;-69
2023/09/21 05:00:00;;;;;;;10.40;7.60;;;15.30;82.30;;;14.19;100.00;94971.16;6090341;23;20021;-66
2023/09/21 05:02:26;;;;;;;39.78;31.05;;;15.30;82.30;;;14.22;100.00;94978.63;6067497;23;20018;-71
2023/09/21 05:04:52;;;;;;;139.05;100.18;;;15.40;82.30;;;14.21;100.00;94971.72;6090545;23;20022;-70
2023/09/21 05:07:18;;;;;;;34.45;26.25;;;15.40;82.30;;;14.24;100.00;94973.88;6094093;23;20093;-71
2023/09/21 05:09:45;;;;;;;13.20;10.82;;;15.40;82.30;;;14.26;100.00;94971.84;6118695;23;20006;-72
2023/09/21 05:12:12;;;;;;;12.27;8.50;;;15.40;82.10;;;14.28;100.00;94977.69;6090821;23;20069;-71
2023/09/21 05:14:37;;;;;;;10.55;7.95;;;15.40;82.10;;;14.27;100.00;94976.09;6117961;23;20054;-75
2023/09/21 05:17:05;;;;;;;13.77;10.75;;;15.40;81.90;;;14.26;100.00;94977.94;6089670;23;20077;-68
2023/09/21 05:19:34;;;;;;;17.42;14.05;;;15.30;81.90;;;14.26;100.00;94979.78;6118034;23;20016;-70
2023/09/21 05:22:01;;;;;;;26.10;22.08;;;15.40;82.10;;;14.28;100.00;94977.69;6089762;23;20013;-72
2023/09/21 05:24:27;;;;;;;11.10;9.57;;;15.50;82.10;;;14.30;100.00;94970.31;6113365;23;20033;-70
2023/09/21 05:26:53;;;;;;;13.40;9.60;;;15.50;81.80;;;14.32;100.00;94965.59;6116357;23;20013;-74
2023/09/21 05:29:20;;;;;;;14.57;10.18;;;15.50;81.70;;;14.33;100.00;94964.53;6117248;23;20478;-72
2023/09/21 05:31:47;;;;;;;9.15;8.10;;;15.60;81.70;;;14.33;100.00;94964.53;6069398;23;20132;-72
2023/09/21 05:34:13;;;;;;;10.00;7.20;;;15.60;81.60;;;14.37;100.00;94981.53;6094095;23;20189;-72
2023/09/21 05:36:39;;;;;;;9.00;7.72;;;15.60;81.80;;;14.38;100.00;94972.53;6116301;23;20025;-69
2023/09/21 05:39:05;;;;;;;9.23;7.80;;;15.70;81.50;;;14.38;100.00;94965.41;6118954;23;20471;-68
2023/09/21 05:41:31;;;;;;;11.20;7.20;;;15.70;81.40;;;14.43;100.00;94970.00;6093710;23;20010;-68
2023/09/21 05:43:57;;;;;;;10.40;6.88;;;15.80;81.10;;;14.46;100.00;94974.81;6114367;23;20018;-67
2023/09/21 05:46:23;;;;;;;10.30;6.47;;;15.80;81.00;;;14.48;100.00;94958.69;6088676;23;20086;-68
2023/09/21 05:48:51;;;;;;;13.32;9.65;;;15.80;80.80;;;14.53;100.00;94961.44;6066986;23;20009;-68
2023/09/21 05:51:17;;;;;;;8.27;6.32;;;15.80;80.90;;;14.54;100.00;94955.91;6117213;23;20029;-68
2023/09/21 05:53:43;;;;;;;6.20;5.57;;;15.90;80.70;;;14.55;100.00;94954.88;6114952;23;20076;-66
2023/09/21 05:56:09;;;;;;;8.13;5.28;;;15.90;80.80;;;14.57;100.00;94955.44;6115161;23;20025;-71
2023/09/21 05:58:36;;;;;;;10.13;5.47;;;15.90;80.60;;;14.62;100.00;94958.13;6115383;23;20326;-68
2023/09/21 06:01:02;;;;;;;6.57;5.32;;;16.10;80.70;;;14.69;100.00;94960.63;6089986;23;20002;-67
2023/09/21 06:03:28;;;;;;;8.23;6.63;;;16.10;80.60;;;14.74;100.00;94954.63;6117046;23;20061;-72
2023/09/21 06:05:54;;;;;;;10.40;6.70;;;16.10;81.00;;;14.76;100.00;94952.53;6116376;23;20089;-73
2023/09/21 06:08:20;;;;;;;7.97;6.85;;;16.20;81.40;;;14.81;100.00;94958.69;6067804;23;20042;-72
2023/09/21 06:10:46;;;;;;;8.70;6.63;;;16.20;81.70;;;14.87;100.00;94965.66;6091471;23;20746;-69
2023/09/21 06:13:12;;;;;;;8.82;6.32;;;16.40;81.70;;;14.94;100.00;94968.16;6091418;23;20009;-67
2023/09/21 06:15:46;;;;;;;8.82;6.70;;;16.40;82.00;;;15.04;100.00;94967.47;6067394;23;20010;-71
2023/09/21 06:18:12;;;;;;;7.10;5.65;;;16.50;82.40;;;15.09;100.00;94963.03;6066931;23;20018;-65
2023/09/21 06:20:38;;;;;;;6.20;5.47;;;16.60;82.60;;;15.15;100.00;94959.41;6116125;23;20033;-67
2023/09/21 06:23:06;;;;;;;8.10;6.47;;;16.70;82.30;;;15.23;100.00;94959.00;6077712;23;20024;-66
2023/09/21 06:25:33;;;;;;;6.28;5.15;;;16.80;82.20;;;15.31;100.00;94945.31;6066523;23;20014;-67
2023/09/21 06:27:58;;;;;;;6.78;5.97;;;16.90;82.40;;;15.39;100.00;94946.75;6069100;23;20346;-67
2023/09/21 06:30:24;;;;;;;8.90;5.78;;;17.00;82.50;;;15.47;100.00;94948.16;6092534;23;20583;-69
2023/09/21 06:32:50;;;;;;;8.02;5.45;;;17.10;82.50;;;15.55;100.00;94953.81;6068590;23;20010;-70
2023/09/21 06:35:16;;;;;;;8.13;5.63;;;17.20;82.30;;;15.64;100.00;94948.13;6092835;23;20105;-69
2023/09/21 06:37:42;;;;;;;7.45;5.45;;;17.20;82.40;;;15.73;100.00;94942.13;6095505;23;20060;-70
2023/09/21 06:40:09;;;;;;;6.32;5.30;;;17.40;82.20;;;15.77;100.00;94943.22;6094548;23;20013;-68
2023/09/21 06:42:35;;;;;;;8.75;5.55;;;17.40;81.90;;;15.85;100.00;94940.16;6093868;23;20683;-71
2023/09/21 06:45:00;;;;;;;6.45;5.03;;;17.50;80.80;;;15.90;100.00;94936.72;6067956;23;20045;-67
2023/09/21 06:47:28;;;;;;;8.63;5.30;;;17.60;80.20;;;15.97;100.00;94934.69;6069836;23;20125;-68
2023/09/21 06:49:54;;;;;;;6.40;4.93;;;17.70;80.00;;;16.08;100.00;94930.28;6070315;23;20025;-69
2023/09/21 06:52:21;;;;;;;6.63;4.82;;;17.80;80.00;;;16.19;100.00;94924.78;6069765;23;20025;-70
2023/09/21 06:54:49;;;;;;;5.75;4.80;;;18.10;79.50;;;16.35;100.00;94922.28;6094202;23;20017;-65
2023/09/21 06:57:15;;;;;;;30.70;25.40;;;18.30;78.90;;;16.46;100.00;94922.09;6095650;23;20032;-66
2023/09/21 06:59:42;;;;;;;16.42;14.48;;;18.60;78.00;;;16.66;100.00;94920.63;6069671;23;20021;-66
2023/09/21 07:02:07;;;;;;;23.00;20.15;;;19.10;76.60;;;16.84;100.00;94925.56;6045071;23;20013;-66
2023/09/21 07:04:33;;;;;;;25.15;21.40;;;19.50;75.50;;;17.03;100.00;94925.94;6046310;23;20450;-67
2023/09/21 07:07:04;;;;;;;9.90;7.10;;;19.60;75.60;;;17.23;100.00;94918.09;6045874;23;20535;-72
2023/09/21 07:09:31;;;;;;;8.10;4.10;;;19.80;75.40;;;17.46;100.00;94916.84;6070870;23;20024;-72
2023/09/21 07:11:57;;;;;;;15.65;11.35;;;19.90;74.60;;;17.64;100.00;94913.69;6093598;23;20065;-71
2023/09/21 07:14:23;;;;;;;6.03;3.78;;;20.30;73.50;;;17.85;100.00;94909.25;6094557;23;20573;-70
2023/09/21 07:16:49;;;;;;;5.05;3.72;;;20.60;72.60;;;18.10;100.00;94907.69;6092707;23;20468;-68
2023/09/21 07:19:14;;;;;;;7.35;3.35;;;20.80;71.50;;;18.32;100.00;94903.72;6067964;23;20597;-68
2023/09/21 07:21:40;;;;;;;5.40;4.00;;;21.10;71.20;;;18.56;100.00;94895.19;6116508;23;20598;-67
2023/09/21 07:24:09;;;;;;;7.13;4.55;;;21.70;69.00;;;18.81;100.00;94895.19;6089717;23;20582;-65
2023/09/21 07:26:35;;;;;;;7.05;3.45;;;22.40;67.80;;;19.12;100.00;94895.91;6091732;23;20018;-67
2023/09/21 07:29:07;;;;;;;2.90;2.55;;;23.10;65.10;;;19.44;100.00;94898.16;6091751;23;20428;-67
2023/09/21 07:31:33;;;;;;;5.30;2.97;;;23.60;64.00;;;19.74;100.00;94899.13;6068677;23;20077;-68
2023/09/21 07:34:01;;;;;;;6.53;2.90;;;24.10;61.50;;;20.05;100.00;94897.88;6092497;23;20042;-69
2023/09/21 07:36:27;;;;;;;6.95;3.25;;;24.50;60.40;;;20.35;100.00;94910.19;6067657;23;20022;-65
2023/09/21 07:38:55;;;;;;;4.38;2.70;;;25.10;58.90;;;20.66;100.00;94904.63;6093724;23;20041;-68
2023/09/21 07:41:21;;;;;;;5.35;2.42;;;25.50;57.60;;;20.92;100.00;94902.50;6091696;23;20018;-70
2023/09/21 07:43:48;;;;;;;3.17;2.50;;;25.70;55.60;;;21.23;100.00;94906.44;6040254;23;20018;-69
2023/09/21 07:46:14;;;;;;;3.95;3.13;;;26.10;55.10;;;21.51;100.00;94896.00;6089258;23;20473;-67
2023/09/21 07:48:40;;;;;;;5.65;2.92;;;26.50;54.40;;;21.81;99.02;94895.59;6092334;23;20018;-72
2023/09/21 07:51:07;;;;;;;3.97;2.63;;;26.80;53.50;;;22.10;98.23;94889.31;6066691;23;20157;-71
2023/09/21 07:53:36;;;;;;;5.03;2.92;;;27.10;53.50;;;22.36;96.47;94885.16;6067601;23;20018;-66
2023/09/21 07:56:04;;;;;;;3.53;2.53;;;27.60;51.90;;;22.59;93.19;94876.19;6020024;23;20018;-66
2023/09/21 07:58:30;;;;;;;4.00;2.40;;;27.80;49.70;;;22.80;90.35;94881.22;6091456;23;20014;-65
2023/09/21 08:00:56;;;;;;;4.85;2.65;;;28.00;49.60;;;23.07;89.07;94880.47;6090854;23;20009;-66
2023/09/21 08:03:26;;;;;;;4.05;2.50;;;28.50;48.70;;;23.33;88.02;94878.13;6092277;23;20766;-65
2023/09/21 08:05:53;;;;;;;5.18;2.45;;;28.90;48.70;;;23.62;87.99;94875.94;6090345;23;20044;-67
2023/09/21 08:08:19;;;;;;;6.68;2.90;;;29.20;48.50;;;23.92;86.12;94879.03;6066920;23;20105;-69
2023/09/21 08:10:45;;;;;;;3.28;2.40;;;29.60;47.50;;;24.17;84.17;94873.09;6066366;23;20018;-66
2023/09/21 08:13:11;;;;;;;4.93;2.35;;;30.00;46.30;;;24.43;81.33;94868.72;6066769;23;20113;-71
2023/09/21 08:15:37;;;;;;;18.60;15.68;;;30.20;44.90;;;24.65;78.72;94862.53;6066123;23;20117;-69
2023/09/21 08:18:04;;;;;;;9.23;4.07;;;30.40;44.00;;;24.94;78.39;94870.13;6092847;23;20030;-70
2023/09/21 08:20:30;;;;;;;5.60;2.90;;;30.70;44.50;;;25.23;77.65;94863.47;6091916;23;20014;-72
2023/09/21 08:22:56;;;;;;;5.55;2.90;;;31.00;44.50;;;25.48;76.24;94868.13;6066949;23;20116;-69
2023/09/21 08:25:21;;;;;;;5.88;2.63;;;31.30;43.60;;;25.72;74.29;94856.19;6041759;23;20109;-71
2023/09/21 08:27:47;;;;;;;4.45;2.95;;;31.40;42.80;;;25.96;73.10;94859.22;6093886;23;20126;-73
2023/09/21 08:30:15;;;;;;;3.67;2.05;;;31.60;42.20;;;26.13;71.96;94861.91;6093434;23;20104;-71
2023/09/21 08:32:41;;;;;;;4.15;2.38;;;31.60;43.40;;;26.32;71.49;94863.50;6044350;23;20439;-66
2023/09/21 08:35:08;;;;;;;6.13;2.80;;;31.60;42.80;;;26.47;70.03;94853.03;6090678;23;20861;-65
2023/09/21 08:37:35;;;;;;;4.20;2.10;;;31.80;41.90;;;26.67;69.52;94848.06;6090681;23;20395;-70
2023/09/21 08:40:06;;;;;;;3.15;1.95;;;31.90;42.40;;;26.88;68.67;94840.88;6092348;23;20473;-69
2023/09/21 08:42:32;;;;;;;6.43;2.30;;;32.00;42.50;;;27.11;67.40;94841.47;6068655;23;20014;-69
2023/09/21 08:44:57;;;;;;;13.02;8.88;;;32.30;41.70;;;27.29;66.40;94837.56;6064812;23;20069;-66
2023/09/21 08:47:24;;;;;;;13.27;10.45;;;32.50;40.10;;;27.48;64.77;94836.38;6041959;23;20117;-66
2023/09/21 08:49:50;;;;;;;4.43;3.22;;;32.60;40.20;;;27.68;63.98;94822.91;6042032;23;20022;-65
2023/09/21 08:52:15;;;;;;;3.03;2.13;;;32.80;39.70;;;27.80;63.17;94824.88;6040895;23;20076;-66
2023/09/21 08:54:42;;;;;;;11.80;9.40;;;32.70;40.80;;;27.99;62.45;94824.44;6019792;23;20132;-64
2023/09/21 08:57:11;;;;;;;9.02;7.32;;;32.90;40.10;;;28.23;62.08;94829.16;6089187;23;20493;-63
2023/09/21 08:59:40;;;;;;;6.03;4.28;;;33.20;40.10;;;28.45;59.48;94807.19;6092449;23;20022;-65
2023/09/21 09:02:09;;;;;;;4.07;2.80;;;33.40;39.20;;;28.60;58.93;94794.94;6044028;23;20397;-66
2023/09/21 09:04:36;;;;;;;5.70;3.22;;;33.30;39.10;;;28.82;59.76;94810.78;6044696;23;20462;-66
2023/09/21 09:07:02;;;;;;;8.02;5.55;;;33.30;38.90;;;29.03;59.02;94804.53;6092009;23;20023;-63
2023/09/21 09:09:28;;;;;;;5.18;4.50;;;33.60;39.50;;;29.29;58.92;94807.69;6091797;23;20022;-65
2023/09/21 09:11:54;;;;;;;7.47;4.13;;;33.80;39.70;;;29.53;57.92;94791.44;6094382;23;20141;-64
2023/09/21 09:14:19;;;;;;;4.70;2.13;;;34.00;38.50;;;29.72;56.04;94787.34;6094679;23;20545;-64
2023/09/21 09:16:46;;;;;;;5.45;2.40;;;34.00;37.50;;;29.80;56.08;94789.91;6091020;23;20773;-64
2023/09/21 09:19:12;;;;;;;7.68;2.50;;;33.80;39.10;;;29.93;54.44;94785.25;6092544;23;20417;-64
2023/09/21 09:21:39;;;;;;;5.15;2.10;;;33.80;38.20;;;30.10;54.70;94781.47;6068385;23;20125;-63
2023/09/21 09:24:06;;;;;;;8.65;5.95;;;34.00;38.80;;;30.26;54.34;94760.63;6064706;23;20014;-65
2023/09/21 09:26:32;;;;;;;6.38;4.03;;;34.10;38.50;;;30.51;52.99;94757.78;6067628;23;20153;-63
2023/09/21 09:29:09;;;;;;;9.95;5.70;;;34.40;37.70;;;30.74;49.87;94731.63;6042615;23;20363;-65
2023/09/21 09:31:35;;;;;;;10.60;2.50;;;34.60;37.30;;;30.93;51.71;94756.16;6043673;23;22819;-62
2023/09/21 09:34:04;;;;;;;9.25;2.25;;;34.70;37.70;;;31.17;52.01;94755.22;6067673;23;19998;-64
2023/09/21 09:36:32;;;;;;;5.93;2.28;;;35.10;37.40;;;31.43;50.52;94738.31;6091779;23;20013;-66
2023/09/21 09:39:00;;;;;;;7.47;4.47;;;35.50;35.80;;;31.69;49.22;94737.75;6066707;23;20014;-66
2023/09/21 09:41:27;;;;;;;5.97;3.15;;;35.90;35.80;;;31.85;48.19;94721.38;6066086;23;20014;-64
2023/09/21 09:43:52;;;;;;;5.35;2.60;;;36.10;34.30;;;32.04;48.52;94707.78;6043093;23;20038;-66
2023/09/21 09:46:22;;;;;;;4.72;2.10;;;36.60;34.50;;;32.26;47.41;94703.53;6064864;23;20851;-65
2023/09/21 09:48:52;;;;;;;2.88;1.80;;;37.00;33.70;;;32.55;47.48;94699.38;6045935;23;20107;-67
2023/09/21 09:51:26;;;;;;;5.05;2.10;;;37.80;33.20;;;32.80;44.75;94675.31;6091406;23;20486;-66
2023/09/21 09:53:53;;;;;;;4.57;2.10;;;38.40;31.40;;;33.13;47.08;94691.78;6045002;23;20074;-72
2023/09/21 09:56:19;;;;;;;4.03;2.00;;;39.00;31.40;;;33.42;47.11;94694.94;6045229;23;20595;-73
2023/09/21 09:58:47;;;;;;;3.85;1.65;;;39.60;30.10;;;33.74;46.22;94687.19;6069506;23;20630;-72
2023/09/21 10:01:13;;;;;;;2.28;1.33;;;40.40;28.90;;;34.14;45.42;94693.88;6046834;23;20014;-70
2023/09/21 10:03:43;;;;;;;4.07;1.88;;;41.10;28.10;;;34.56;44.18;94682.63;6108940;23;20503;-72
2023/09/21 10:06:09;;;;;;;6.40;1.83;;;41.90;26.70;;;35.04;43.96;94674.44;6094305;23;20044;-72
2023/09/21 10:08:39;;;;;;;3.50;1.73;;;42.80;26.40;;;35.49;42.62;94673.19;6071974;23;20018;-71
2023/09/21 10:11:09;;;;;;;2.35;1.48;;;43.40;25.50;;;35.72;41.03;94660.00;6071715;23;20025;-72
2023/09/21 10:13:35;;;;;;;2.47;1.33;;;43.50;24.90;;;36.10;40.76;94652.34;6118276;23;20026;-71
2023/09/21 10:16:05;;;;;;;4.40;1.90;;;43.90;24.60;;;36.61;37.12;94626.59;6068226;23;20005;-74